Bisha, Saudi Arabia
Current Conditions -  °F | °C
As of 4:00 PM on Thursday 25 Dec 2014 (Local Time) from OEBH Reporting Station
Clear Clear  
Wind Chill: 75°   Ceiling: Unl
Heat Index: 75°   Visibility: 6mi
Dew Point: 43°   Wind: 14mph
Humidity: 31%   Direction: 100°E
Pressure: 30.12"   Gusts: NA
Location:  19.98°N, 42.62°E
Report Text: OEBH 251300Z 10012KT CAVOK 24/06 Q1020 NOSIG
Loading
Personal Weather Stations






























Interactive Weather Map New forecast layout! Learn more

10-Day Weather Forecast

Advertisements
Track Severe Weather on mobile